Time;durP1;ratioP1;P1;durP2;ratioP2;P2;SDS_P1;SDS_P2;PMS_P1;PMS_P2;Temp;Humidity;BMP_temperature;BMP_pressure;BME280_temperature;BME280_humidity;BME280_pressure;Samples;Min_cycle;Max_cycle;Signal;HPM_P1;HPM_P2
2020/12/12 00:00:58;;;;;;;;;;;;;;;;;;5021042;28;4064;-72
2020/12/12 00:03:24;;;;;;;;;;;;;;;;;;5018412;28;10606;-70
2020/12/12 00:05:50;;;;;;;;;;;;;;;;;;5021123;28;8995;-72
2020/12/12 00:08:16;;;;;;;;;;;;;;;;;;5020501;28;9068;-71
2020/12/12 00:10:42;;;;;;;;;;;;;;;;;;5013324;28;9074;-71
2020/12/12 00:13:08;;;;;;;;;;;;;;;;;;5015445;28;11162;-71
2020/12/12 00:15:35;;;;;;;;;;;;;;;;;;5017307;28;9261;-71
2020/12/12 00:18:01;;;;;;;;;;;;;;;;;;5020929;28;9294;-72
2020/12/12 00:20:27;;;;;;;;;;;;;;;;;;5025064;28;9317;-71
2020/12/12 00:22:53;;;;;;;;;;;;;;;;;;5023943;28;10750;-71
2020/12/12 00:25:19;;;;;;;;;;;;;;;;;;5027341;28;9197;-71
2020/12/12 00:27:45;;;;;;;;;;;;;;;;;;5023119;28;3700;-71
2020/12/12 00:30:11;;;;;;;;;;;;;;;;;;5019110;28;9348;-72
2020/12/12 00:32:37;;;;;;;;;;;;;;;;;;5010574;28;9266;-71
2020/12/12 00:35:03;;;;;;;;;;;;;;;;;;5017811;28;9154;-72
2020/12/12 00:37:30;;;;;;;;;;;;;;;;;;5018774;28;9094;-71
2020/12/12 00:39:56;;;;;;;;;;;;;;;;;;5020771;28;4120;-71
2020/12/12 00:42:22;;;;;;;;;;;;;;;;;;5017796;28;4594;-71
2020/12/12 00:44:48;;;;;;;;;;;;;;;;;;5017334;28;10479;-71
2020/12/12 00:47:14;;;;;;;;;;;;;;;;;;5023403;28;9134;-71
2020/12/12 00:49:41;;;;;;;;;;;;;;;;;;5029288;28;9211;-71
2020/12/12 00:52:07;;;;;;;;;;;;;;;;;;5029204;28;10565;-72
2020/12/12 00:54:33;;;;;;;;;;;;;;;;;;5021624;28;11111;-71
2020/12/12 00:56:59;;;;;;;;;;;;;;;;;;5011710;28;9111;-71
2020/12/12 00:59:25;;;;;;;;;;;;;;;;;;5019380;28;9218;-71
2020/12/12 01:01:51;;;;;;;;;;;;;;;;;;5019228;28;9003;-72
2020/12/12 01:04:16;;;;;;;;;;;;;;;;;;5017806;28;9241;-71
2020/12/12 01:06:46;;;;;;;;;;;;;;;;;;5027203;28;9385;-71
2020/12/12 01:09:11;;;;;;;;;;;;;;;;;;5016497;28;10566;-71
2020/12/12 01:11:37;;;;;;;;;;;;;;;;;;5013389;28;9068;-70
2020/12/12 01:14:03;;;;;;;;;;;;;;;;;;5022987;28;9232;-71
2020/12/12 01:16:29;;;;;;;;;;;;;;;;;;5023130;28;9515;-71
2020/12/12 01:18:55;;;;;;;;;;;;;;;;;;5016708;28;4126;-71
2020/12/12 01:21:21;;;;;;;;;;;;;;;;;;5013486;28;9218;-71
2020/12/12 01:23:48;;;;;;;;;;;;;;;;;;5018224;28;10580;-72
2020/12/12 01:26:14;;;;;;;;;;;;;;;;;;5021865;28;9280;-72
2020/12/12 01:28:40;;;;;;;;;;;;;;;;;;5019363;28;9103;-72
2020/12/12 01:31:06;;;;;;;;;;;;;;;;;;5012607;28;9036;-72
2020/12/12 01:33:32;;;;;;;;;;;;;;;;;;5015624;28;9753;-72
2020/12/12 01:35:58;;;;;;;;;;;;;;;;;;5016836;28;9290;-71
2020/12/12 01:38:23;;;;;;;;;;;;;;;;;;5021380;28;9132;-72
2020/12/12 01:40:55;;;;;;;;;;;;;;;;;;5010932;28;9134;-71
2020/12/12 01:43:21;;;;;;;;;;;;;;;;;;5025266;28;9251;-72
2020/12/12 01:45:47;;;;;;;;;;;;;;;;;;5017603;28;4249;-71
2020/12/12 01:48:13;;;;;;;;;;;;;;;;;;5017362;28;10347;-71
2020/12/12 01:50:39;;;;;;;;;;;;;;;;;;5021884;28;9292;-72
2020/12/12 01:53:05;;;;;;;;;;;;;;;;;;5022875;28;9232;-71
2020/12/12 01:55:31;;;;;;;;;;;;;;;;;;5027386;28;5914;-70
2020/12/12 01:57:58;;;;;;;;;;;;;;;;;;5024155;28;4414;-71
2020/12/12 02:00:24;;;;;;;;;;;;;;;;;;5020967;28;10638;-71
2020/12/12 02:02:53;;;;;;;;;;;;;;;;;;5021169;28;9314;-72
2020/12/12 02:08:05;;;;;;;;;;;;;;;;;;5022690;28;9143;-71
2020/12/12 02:10:30;;;;;;;;;;;;;;;;;;5021780;28;9091;-72
2020/12/12 02:12:58;;;;;;;;;;;;;;;;;;5018998;28;4320;-71
2020/12/12 02:15:23;;;;;;;;;;;;;;;;;;5012527;28;9397;-72
2020/12/12 02:17:49;;;;;;;;;;;;;;;;;;5022502;28;9114;-71
2020/12/12 02:20:15;;;;;;;;;;;;;;;;;;5015703;28;9152;-71
2020/12/12 02:22:45;;;;;;;;;;;;;;;;;;5021782;28;8975;-72
2020/12/12 02:25:11;;;;;;;;;;;;;;;;;;5015799;28;10522;-71
2020/12/12 02:27:36;;;;;;;;;;;;;;;;;;5019662;28;10805;-71
2020/12/12 02:30:03;;;;;;;;;;;;;;;;;;5014128;28;10448;-71
2020/12/12 02:32:29;;;;;;;;;;;;;;;;;;5020019;28;9094;-71
2020/12/12 02:34:55;;;;;;;;;;;;;;;;;;4973811;28;11478;-71
2020/12/12 02:37:21;;;;;;;;;;;;;;;;;;4993986;28;10906;-72
2020/12/12 02:39:48;;;;;;;;;;;;;;;;;;4995988;28;4103;-70
2020/12/12 02:42:14;;;;;;;;;;;;;;;;;;4993731;28;9166;-72
2020/12/12 02:44:40;;;;;;;;;;;;;;;;;;4986902;28;9141;-71
2020/12/12 02:47:05;;;;;;;;;;;;;;;;;;4993004;28;9017;-71
2020/12/12 02:49:31;;;;;;;;;;;;;;;;;;5002673;28;9104;-71
2020/12/12 02:51:57;;;;;;;;;;;;;;;;;;5000977;28;4159;-71
2020/12/12 02:54:24;;;;;;;;;;;;;;;;;;4993752;28;9150;-71
2020/12/12 02:56:50;;;;;;;;;;;;;;;;;;5001590;28;10703;-71
2020/12/12 02:59:16;;;;;;;;;;;;;;;;;;4999956;28;10655;-71
2020/12/12 03:01:42;;;;;;;;;;;;;;;;;;4990774;28;9307;-71
2020/12/12 03:04:08;;;;;;;;;;;;;;;;;;4989758;28;9120;-71
2020/12/12 03:06:36;;;;;;;;;;;;;;;;;;5007289;28;9485;-71
2020/12/12 03:09:03;;;;;;;;;;;;;;;;;;4998104;28;9200;-71
2020/12/12 03:11:29;;;;;;;;;;;;;;;;;;4996891;28;9175;-70
2020/12/12 03:13:56;;;;;;;;;;;;;;;;;;4990169;28;9404;-72
2020/12/12 03:16:21;;;;;;;;;;;;;;;;;;4997339;28;9088;-71
2020/12/12 03:18:47;;;;;;;;;;;;;;;;;;5000914;28;3925;-71
2020/12/12 03:21:13;;;;;;;;;;;;;;;;;;4994700;28;9113;-71
2020/12/12 03:23:39;;;;;;;;;;;;;;;;;;5002170;28;9209;-71
2020/12/12 03:26:05;;;;;;;;;;;;;;;;;;5000047;28;10537;-71
2020/12/12 03:28:31;;;;;;;;;;;;;;;;;;4997032;28;10516;-71
2020/12/12 03:30:58;;;;;;;;;;;;;;;;;;4995544;28;4000;-71
2020/12/12 03:33:24;;;;;;;;;;;;;;;;;;4995492;28;9105;-71
2020/12/12 03:35:49;;;;;;;;;;;;;;;;;;4993077;28;9282;-71
2020/12/12 03:38:15;;;;;;;;;;;;;;;;;;4990836;28;9073;-71
2020/12/12 03:40:41;;;;;;;;;;;;;;;;;;4992252;28;9220;-72
2020/12/12 03:43:07;;;;;;;;;;;;;;;;;;5006038;28;7606;-72
2020/12/12 03:45:33;;;;;;;;;;;;;;;;;;4999648;28;9604;-71
2020/12/12 03:48:00;;;;;;;;;;;;;;;;;;5003811;28;8593;-71
2020/12/12 03:50:28;;;;;;;;;;;;;;;;;;5012157;28;9055;-71
2020/12/12 03:52:53;;;;;;;;;;;;;;;;;;5001484;28;9295;-72
2020/12/12 03:55:19;;;;;;;;;;;;;;;;;;4998742;28;10503;-71
2020/12/12 03:57:45;;;;;;;;;;;;;;;;;;5000518;28;3744;-71
2020/12/12 04:00:11;;;;;;;;;;;;;;;;;;5000025;28;10689;-71
2020/12/12 04:02:37;;;;;;;;;;;;;;;;;;4994667;28;9278;-71
2020/12/12 04:05:04;;;;;;;;;;;;;;;;;;5003425;28;9124;-71
2020/12/12 04:07:30;;;;;;;;;;;;;;;;;;5013667;28;9068;-71
2020/12/12 04:09:56;;;;;;;;;;;;;;;;;;5002773;28;4138;-71
2020/12/12 04:12:22;;;;;;;;;;;;;;;;;;5006707;28;9062;-71
2020/12/12 04:14:48;;;;;;;;;;;;;;;;;;5012273;28;9042;-71
2020/12/12 04:17:14;;;;;;;;;;;;;;;;;;5007228;28;9153;-71
2020/12/12 04:19:39;;;;;;;;;;;;;;;;;;5001585;28;9100;-71
2020/12/12 04:22:06;;;;;;;;;;;;;;;;;;5017462;28;7335;-72
2020/12/12 04:24:32;;;;;;;;;;;;;;;;;;5008867;28;9123;-72
2020/12/12 04:26:58;;;;;;;;;;;;;;;;;;5004243;28;8892;-71
2020/12/12 04:29:24;;;;;;;;;;;;;;;;;;5004262;28;10651;-72
2020/12/12 04:31:50;;;;;;;;;;;;;;;;;;4996606;28;8637;-71
2020/12/12 04:34:16;;;;;;;;;;;;;;;;;;4994338;28;10277;-71
2020/12/12 04:36:42;;;;;;;;;;;;;;;;;;5003086;28;11071;-71
2020/12/12 04:39:08;;;;;;;;;;;;;;;;;;4998246;28;9213;-71
2020/12/12 04:41:35;;;;;;;;;;;;;;;;;;4992485;28;9049;-71
2020/12/12 04:44:01;;;;;;;;;;;;;;;;;;4992479;28;9116;-72
2020/12/12 04:46:27;;;;;;;;;;;;;;;;;;5013577;28;9157;-71
2020/12/12 04:48:53;;;;;;;;;;;;;;;;;;5010950;28;4123;-71
2020/12/12 04:51:19;;;;;;;;;;;;;;;;;;5007333;28;9103;-71
2020/12/12 04:53:45;;;;;;;;;;;;;;;;;;5004461;28;10630;-71
2020/12/12 04:56:18;;;;;;;;;;;;;;;;;;5005432;28;9344;-71
2020/12/12 04:58:47;;;;;;;;;;;;;;;;;;5003351;28;10720;-71
2020/12/12 05:01:13;;;;;;;;;;;;;;;;;;4995742;28;9025;-71
2020/12/12 05:03:40;;;;;;;;;;;;;;;;;;4995363;28;9518;-73
2020/12/12 05:06:06;;;;;;;;;;;;;;;;;;4995216;28;9217;-71
2020/12/12 05:08:32;;;;;;;;;;;;;;;;;;4997914;28;9227;-71
2020/12/12 05:11:01;;;;;;;;;;;;;;;;;;5004428;28;10615;-71
2020/12/12 05:13:28;;;;;;;;;;;;;;;;;;5007031;28;9057;-71
2020/12/12 05:15:54;;;;;;;;;;;;;;;;;;5007456;28;4139;-71
2020/12/12 05:18:21;;;;;;;;;;;;;;;;;;4992762;28;9160;-71
2020/12/12 05:20:47;;;;;;;;;;;;;;;;;;5001779;28;9217;-71
2020/12/12 05:23:13;;;;;;;;;;;;;;;;;;4993565;28;8889;-71
2020/12/12 05:25:40;;;;;;;;;;;;;;;;;;4995839;28;9085;-71
2020/12/12 05:28:06;;;;;;;;;;;;;;;;;;5018017;28;3764;-71
2020/12/12 05:30:34;;;;;;;;;;;;;;;;;;5000770;28;7639;-71
2020/12/12 05:33:00;;;;;;;;;;;;;;;;;;4998671;28;9265;-71
2020/12/12 05:35:26;;;;;;;;;;;;;;;;;;4995182;28;9596;-71
2020/12/12 05:37:53;;;;;;;;;;;;;;;;;;4996240;28;9302;-71
2020/12/12 05:40:19;;;;;;;;;;;;;;;;;;5000931;28;9115;-72
2020/12/12 05:42:46;;;;;;;;;;;;;;;;;;4992109;28;9533;-71
2020/12/12 05:45:12;;;;;;;;;;;;;;;;;;4997315;28;9209;-71
2020/12/12 05:47:39;;;;;;;;;;;;;;;;;;5005658;28;9168;-71
2020/12/12 05:50:05;;;;;;;;;;;;;;;;;;5000282;28;9123;-72
2020/12/12 05:52:31;;;;;;;;;;;;;;;;;;5006784;28;9168;-71
2020/12/12 05:54:58;;;;;;;;;;;;;;;;;;5014558;28;4143;-70
2020/12/12 05:57:25;;;;;;;;;;;;;;;;;;5003123;28;9109;-71
2020/12/12 05:59:51;;;;;;;;;;;;;;;;;;5002172;28;10582;-71
2020/12/12 06:02:19;;;;;;;;;;;;;;;;;;5007146;28;8998;-71
2020/12/12 06:04:50;;;;;;;;;;;;;;;;;;5010572;28;9002;-70
2020/12/12 06:07:26;;;;;;;;;;;;;;;;;;5009320;28;9185;-71
2020/12/12 06:09:54;;;;;;;;;;;;;;;;;;5002154;28;4128;-73
2020/12/12 06:12:22;;;;;;;;;;;;;;;;;;4994469;28;9212;-71
2020/12/12 06:14:52;;;;;;;;;;;;;;;;;;5002568;28;10517;-71
2020/12/12 06:17:22;;;;;;;;;;;;;;;;;;5003095;28;9135;-71
2020/12/12 06:19:48;;;;;;;;;;;;;;;;;;5001943;28;9109;-71
2020/12/12 06:22:19;;;;;;;;;;;;;;;;;;4998886;28;9297;-72
2020/12/12 06:24:47;;;;;;;;;;;;;;;;;;4996052;28;9449;-72
2020/12/12 06:27:16;;;;;;;;;;;;;;;;;;5002877;28;9140;-71
2020/12/12 06:29:44;;;;;;;;;;;;;;;;;;4996965;28;10595;-71
2020/12/12 06:32:13;;;;;;;;;;;;;;;;;;4998290;28;9057;-71
2020/12/12 06:34:39;;;;;;;;;;;;;;;;;;4992782;28;9050;-71
2020/12/12 06:37:05;;;;;;;;;;;;;;;;;;5010300;28;3708;-71
2020/12/12 06:39:43;;;;;;;;;;;;;;;;;;4995310;28;9113;-72
2020/12/12 06:42:26;;;;;;;;;;;;;;;;;;4992773;28;9065;-71
2020/12/12 06:44:52;;;;;;;;;;;;;;;;;;4995879;28;9233;-71
2020/12/12 06:47:33;;;;;;;;;;;;;;;;;;4991610;28;9242;-71
2020/12/12 06:50:04;;;;;;;;;;;;;;;;;;4991561;28;9201;-71
2020/12/12 06:52:30;;;;;;;;;;;;;;;;;;5001513;28;9114;-71
2020/12/12 06:55:03;;;;;;;;;;;;;;;;;;5009480;28;4075;-71
2020/12/12 06:57:31;;;;;;;;;;;;;;;;;;5008905;28;9092;-71
2020/12/12 06:59:57;;;;;;;;;;;;;;;;;;4997398;28;10543;-71
2020/12/12 07:02:23;;;;;;;;;;;;;;;;;;5003685;28;10377;-71
2020/12/12 07:04:50;;;;;;;;;;;;;;;;;;5000748;28;9223;-71
2020/12/12 07:07:17;;;;;;;;;;;;;;;;;;5001425;28;5407;-72
2020/12/12 07:09:43;;;;;;;;;;;;;;;;;;4995545;28;5636;-71
2020/12/12 07:12:10;;;;;;;;;;;;;;;;;;4995027;28;9227;-71
2020/12/12 07:14:37;;;;;;;;;;;;;;;;;;5000426;28;9124;-71
2020/12/12 07:17:03;;;;;;;;;;;;;;;;;;5004311;28;9220;-72
2020/12/12 07:19:36;;;;;;;;;;;;;;;;;;4998463;28;9291;-71
2020/12/12 07:22:03;;;;;;;;;;;;;;;;;;5002892;28;4153;-71
2020/12/12 07:24:29;;;;;;;;;;;;;;;;;;5006659;28;9009;-71
2020/12/12 07:26:55;;;;;;;;;;;;;;;;;;5007170;28;9156;-71
2020/12/12 07:29:22;;;;;;;;;;;;;;;;;;4996742;28;10572;-71
2020/12/12 07:31:50;;;;;;;;;;;;;;;;;;5011470;28;9267;-71
2020/12/12 07:34:16;;;;;;;;;;;;;;;;;;4993699;28;10575;-71
2020/12/12 07:36:42;;;;;;;;;;;;;;;;;;4995257;28;11249;-71
2020/12/12 07:39:08;;;;;;;;;;;;;;;;;;5000147;28;10803;-71
2020/12/12 07:41:42;;;;;;;;;;;;;;;;;;4996098;28;8667;-72
2020/12/12 07:44:08;;;;;;;;;;;;;;;;;;5001577;28;9207;-71
2020/12/12 07:46:39;;;;;;;;;;;;;;;;;;5002575;28;5946;-71
2020/12/12 07:49:04;;;;;;;;;;;;;;;;;;5005611;28;3793;-71
2020/12/12 07:51:31;;;;;;;;;;;;;;;;;;5008065;28;9069;-71
2020/12/12 07:53:57;;;;;;;;;;;;;;;;;;4995315;28;9008;-71
2020/12/12 07:56:23;;;;;;;;;;;;;;;;;;5000478;28;10497;-71
2020/12/12 07:59:02;;;;;;;;;;;;;;;;;;5007851;28;10553;-71
2020/12/12 08:01:28;;;;;;;;;;;;;;;;;;4997108;28;8915;-72
2020/12/12 08:03:54;;;;;;;;;;;;;;;;;;5002503;28;4138;-71
2020/12/12 08:06:20;;;;;;;;;;;;;;;;;;5007819;28;9340;-71
2020/12/12 08:08:54;;;;;;;;;;;;;;;;;;5004073;28;9240;-70
2020/12/12 08:11:20;;;;;;;;;;;;;;;;;;4999646;28;9064;-71
2020/12/12 08:13:46;;;;;;;;;;;;;;;;;;5001772;28;9195;-71
2020/12/12 08:16:14;;;;;;;;;;;;;;;;;;4998886;28;8049;-72
2020/12/12 08:18:40;;;;;;;;;;;;;;;;;;4999237;28;9838;-72
2020/12/12 08:21:14;;;;;;;;;;;;;;;;;;5001175;28;9177;-71
2020/12/12 08:23:41;;;;;;;;;;;;;;;;;;5005741;28;9247;-72
2020/12/12 08:26:07;;;;;;;;;;;;;;;;;;5003760;28;10483;-71
2020/12/12 08:28:34;;;;;;;;;;;;;;;;;;5003032;28;9049;-71
2020/12/12 08:31:09;;;;;;;;;;;;;;;;;;4996866;28;3877;-71
2020/12/12 08:33:35;;;;;;;;;;;;;;;;;;4995950;28;9005;-72
2020/12/12 08:36:09;;;;;;;;;;;;;;;;;;4995710;28;10140;-71
2020/12/12 08:38:37;;;;;;;;;;;;;;;;;;5000583;28;9084;-71
2020/12/12 08:41:10;;;;;;;;;;;;;;;;;;5007243;28;9118;-71
2020/12/12 08:43:36;;;;;;;;;;;;;;;;;;4999428;28;10492;-71
2020/12/12 08:46:02;;;;;;;;;;;;;;;;;;4993973;28;4083;-72
2020/12/12 08:48:30;;;;;;;;;;;;;;;;;;4996226;28;9136;-70
2020/12/12 08:50:57;;;;;;;;;;;;;;;;;;4995471;28;9295;-72
2020/12/12 08:53:25;;;;;;;;;;;;;;;;;;5008381;28;9257;-71
2020/12/12 08:56:05;;;;;;;;;;;;;;;;;;4989699;28;10621;-71
2020/12/12 08:58:41;;;;;;;;;;;;;;;;;;5003409;28;9196;-71
2020/12/12 09:01:18;;;;;;;;;;;;;;;;;;5004962;28;10572;-70
2020/12/12 09:03:50;;;;;;;;;;;;;;;;;;4995560;28;9459;-71
2020/12/12 09:06:16;;;;;;;;;;;;;;;;;;5000716;28;9158;-70
2020/12/12 09:08:42;;;;;;;;;;;;;;;;;;4997939;28;9041;-70
2020/12/12 09:11:12;;;;;;;;;;;;;;;;;;4993036;28;9177;-71
2020/12/12 09:13:38;;;;;;;;;;;;;;;;;;4996513;28;8740;-71
2020/12/12 09:16:04;;;;;;;;;;;;;;;;;;5000869;28;4149;-72
2020/12/12 09:18:30;;;;;;;;;;;;;;;;;;5003093;28;9395;-71
2020/12/12 09:20:56;;;;;;;;;;;;;;;;;;5000050;28;9219;-71
2020/12/12 09:23:22;;;;;;;;;;;;;;;;;;4998042;28;8862;-70
2020/12/12 09:25:48;;;;;;;;;;;;;;;;;;4995187;28;9052;-71
2020/12/12 09:28:14;;;;;;;;;;;;;;;;;;5006035;28;7383;-71
2020/12/12 09:30:40;;;;;;;;;;;;;;;;;;5006518;28;9376;-70
2020/12/12 09:33:06;;;;;;;;;;;;;;;;;;4996781;28;9213;-70
2020/12/12 09:35:32;;;;;;;;;;;;;;;;;;4995544;28;9082;-72
2020/12/12 09:37:58;;;;;;;;;;;;;;;;;;5003065;28;8826;-72
2020/12/12 09:40:24;;;;;;;;;;;;;;;;;;4998350;28;10590;-71
2020/12/12 09:42:50;;;;;;;;;;;;;;;;;;5008899;28;9694;-71
2020/12/12 09:45:17;;;;;;;;;;;;;;;;;;4997717;28;10694;-70
2020/12/12 09:47:43;;;;;;;;;;;;;;;;;;5003817;28;5789;-71
2020/12/12 09:50:09;;;;;;;;;;;;;;;;;;4999939;28;10583;-70
2020/12/12 09:52:35;;;;;;;;;;;;;;;;;;5000479;28;7685;-71
2020/12/12 09:55:01;;;;;;;;;;;;;;;;;;4997681;28;4087;-71
2020/12/12 09:57:27;;;;;;;;;;;;;;;;;;4992433;28;10704;-71
2020/12/12 09:59:52;;;;;;;;;;;;;;;;;;4996547;28;10589;-71
2020/12/12 10:02:19;;;;;;;;;;;;;;;;;;4996571;28;9068;-71
2020/12/12 10:04:45;;;;;;;;;;;;;;;;;;5001480;28;10492;-71
2020/12/12 10:07:11;;;;;;;;;;;;;;;;;;5002651;28;4340;-71
2020/12/12 10:09:37;;;;;;;;;;;;;;;;;;4992651;28;10472;-72
2020/12/12 10:12:03;;;;;;;;;;;;;;;;;;5004989;28;10554;-70
2020/12/12 10:14:29;;;;;;;;;;;;;;;;;;4997025;28;10805;-71
2020/12/12 10:16:55;;;;;;;;;;;;;;;;;;5003843;28;10705;-71
2020/12/12 10:19:23;;;;;;;;;;;;;;;;;;4989717;28;10669;-71
2020/12/12 10:21:49;;;;;;;;;;;;;;;;;;5000075;28;11296;-71
2020/12/12 10:24:15;;;;;;;;;;;;;;;;;;4995860;28;10795;-70
2020/12/12 10:26:41;;;;;;;;;;;;;;;;;;5003085;28;9195;-71
2020/12/12 10:29:07;;;;;;;;;;;;;;;;;;4998602;28;9135;-71
2020/12/12 10:31:33;;;;;;;;;;;;;;;;;;5003485;28;10599;-72
2020/12/12 10:33:59;;;;;;;;;;;;;;;;;;5000246;28;3730;-72
2020/12/12 10:36:26;;;;;;;;;;;;;;;;;;4992616;28;11188;-71
2020/12/12 10:38:52;;;;;;;;;;;;;;;;;;4999796;28;10747;-72
2020/12/12 10:41:18;;;;;;;;;;;;;;;;;;5005387;28;10986;-71
2020/12/12 10:43:44;;;;;;;;;;;;;;;;;;4992133;28;8981;-72
2020/12/12 10:46:10;;;;;;;;;;;;;;;;;;5000272;28;4055;-70
2020/12/12 10:48:36;;;;;;;;;;;;;;;;;;4989764;28;10701;-71
2020/12/12 10:51:02;;;;;;;;;;;;;;;;;;4993419;28;10583;-67
2020/12/12 10:53:29;;;;;;;;;;;;;;;;;;5001888;28;10757;-72
2020/12/12 10:55:55;;;;;;;;;;;;;;;;;;4995016;28;10717;-71
2020/12/12 10:58:21;;;;;;;;;;;;;;;;;;4997815;28;10547;-71
2020/12/12 11:00:49;;;;;;;;;;;;;;;;;;5005416;28;11098;-72
2020/12/12 11:03:15;;;;;;;;;;;;;;;;;;4997616;28;10769;-71
2020/12/12 11:05:41;;;;;;;;;;;;;;;;;;4994289;28;10793;-72
2020/12/12 11:08:07;;;;;;;;;;;;;;;;;;5005495;28;10511;-72
2020/12/12 11:10:34;;;;;;;;;;;;;;;;;;4997675;28;8749;-71
2020/12/12 11:13:00;;;;;;;;;;;;;;;;;;4999921;28;4075;-71
2020/12/12 11:15:26;;;;;;;;;;;;;;;;;;5000132;28;10505;-70
2020/12/12 11:17:52;;;;;;;;;;;;;;;;;;5007657;28;9298;-71
2020/12/12 11:20:18;;;;;;;;;;;;;;;;;;4999277;28;9284;-72
2020/12/12 11:22:44;;;;;;;;;;;;;;;;;;5000079;28;9169;-73
2020/12/12 11:25:10;;;;;;;;;;;;;;;;;;5001530;28;4061;-71
2020/12/12 11:27:37;;;;;;;;;;;;;;;;;;5005427;28;9208;-72
2020/12/12 11:30:05;;;;;;;;;;;;;;;;;;4997824;28;9292;-71
2020/12/12 11:32:31;;;;;;;;;;;;;;;;;;4996367;28;9304;-73
2020/12/12 11:35:03;;;;;;;;;;;;;;;;;;4999649;28;9193;-72
2020/12/12 11:37:41;;;;;;;;;;;;;;;;;;5001539;28;11629;-72
2020/12/12 11:40:13;;;;;;;;;;;;;;;;;;5001590;28;4123;-72
2020/12/12 11:48:16;;;;;;;;;;;;;;;;;;4997281;28;9218;-71
2020/12/12 11:50:42;;;;;;;;;;;;;;;;;;5003589;28;9636;-71
2020/12/12 11:53:07;;;;;;;;;;;;;;;;;;5010031;28;9212;-71
2020/12/12 11:55:33;;;;;;;;;;;;;;;;;;5001371;28;9168;-72
2020/12/12 11:58:00;;;;;;;;;;;;;;;;;;5004034;28;3734;-70
2020/12/12 12:00:26;;;;;;;;;;;;;;;;;;4996200;28;9360;-71
2020/12/12 12:02:52;;;;;;;;;;;;;;;;;;4998249;28;9391;-72
2020/12/12 12:05:18;;;;;;;;;;;;;;;;;;5006853;28;9133;-72
2020/12/12 12:07:46;;;;;;;;;;;;;;;;;;5000585;28;9266;-71
2020/12/12 12:10:16;;;;;;;;;;;;;;;;;;4999124;28;4218;-72
2020/12/12 12:12:42;;;;;;;;;;;;;;;;;;5001779;28;9388;-72
2020/12/12 12:15:09;;;;;;;;;;;;;;;;;;4999676;28;9392;-72
2020/12/12 12:17:35;;;;;;;;;;;;;;;;;;5000546;28;9152;-71
2020/12/12 12:20:01;;;;;;;;;;;;;;;;;;5004061;28;9199;-71
2020/12/12 12:22:27;;;;;;;;;;;;;;;;;;4991267;28;9177;-71
2020/12/12 12:24:55;;;;;;;;;;;;;;;;;;5001415;28;9559;-72
2020/12/12 12:27:21;;;;;;;;;;;;;;;;;;4996651;28;8861;-72
2020/12/12 12:29:47;;;;;;;;;;;;;;;;;;4998018;28;9120;-71
2020/12/12 12:32:13;;;;;;;;;;;;;;;;;;5002325;28;9161;-71
2020/12/12 12:34:39;;;;;;;;;;;;;;;;;;4998114;28;7127;-72
2020/12/12 12:37:05;;;;;;;;;;;;;;;;;;5008246;28;4074;-71
2020/12/12 12:39:31;;;;;;;;;;;;;;;;;;4994596;28;8989;-72
2020/12/12 12:41:57;;;;;;;;;;;;;;;;;;4990382;28;9214;-73
2020/12/12 12:44:23;;;;;;;;;;;;;;;;;;5001091;28;9061;-72
2020/12/12 12:46:50;;;;;;;;;;;;;;;;;;5003749;28;6623;-71
2020/12/12 12:49:17;;;;;;;;;;;;;;;;;;5001637;28;7298;-73
2020/12/12 12:51:43;;;;;;;;;;;;;;;;;;5006846;28;9539;-72
2020/12/12 12:54:09;;;;;;;;;;;;;;;;;;4996453;28;9209;-72
2020/12/12 12:56:35;;;;;;;;;;;;;;;;;;5002571;28;9243;-71
2020/12/12 12:59:02;;;;;;;;;;;;;;;;;;4994412;28;8911;-72
2020/12/12 13:01:27;;;;;;;;;;;;;;;;;;4998262;28;7013;-73
2020/12/12 13:03:54;;;;;;;;;;;;;;;;;;5001489;28;7387;-72
2020/12/12 13:06:21;;;;;;;;;;;;;;;;;;5005832;28;9206;-72
2020/12/12 13:08:47;;;;;;;;;;;;;;;;;;4996786;28;8754;-72
2020/12/12 13:11:13;;;;;;;;;;;;;;;;;;4997102;28;9051;-72
2020/12/12 13:13:39;;;;;;;;;;;;;;;;;;5008510;28;9144;-73
2020/12/12 13:16:05;;;;;;;;;;;;;;;;;;5008922;28;4441;-72
2020/12/12 13:18:41;;;;;;;;;;;;;;;;;;5001678;28;9256;-72
2020/12/12 13:21:09;;;;;;;;;;;;;;;;;;5001806;28;10960;-72
2020/12/12 13:23:37;;;;;;;;;;;;;;;;;;4993463;28;10769;-72
2020/12/12 13:26:03;;;;;;;;;;;;;;;;;;4991482;28;9276;-72
2020/12/12 13:31:13;;;;;;;;;;;;;;;;;;5015466;28;3921;-71
2020/12/12 13:33:39;;;;;;;;;;;;;;;;;;4994083;28;9187;-70
2020/12/12 13:36:05;;;;;;;;;;;;;;;;;;4994349;28;9253;-72
2020/12/12 13:38:31;;;;;;;;;;;;;;;;;;5003136;28;9312;-72
2020/12/12 13:40:58;;;;;;;;;;;;;;;;;;4990091;28;9102;-71
2020/12/12 13:43:24;;;;;;;;;;;;;;;;;;5011903;28;9125;-72
2020/12/12 13:45:50;;;;;;;;;;;;;;;;;;5000332;28;9654;-71
2020/12/12 13:48:16;;;;;;;;;;;;;;;;;;4996225;28;9220;-72
2020/12/12 13:50:42;;;;;;;;;;;;;;;;;;4994098;28;9184;-72
2020/12/12 13:53:08;;;;;;;;;;;;;;;;;;4997605;28;9109;-71
2020/12/12 13:55:34;;;;;;;;;;;;;;;;;;5005450;28;9190;-72
2020/12/12 13:58:01;;;;;;;;;;;;;;;;;;4979972;28;11446;-69
2020/12/12 14:00:27;;;;;;;;;;;;;;;;;;4991309;28;12362;-71
2020/12/12 14:02:53;;;;;;;;;;;;;;;;;;4992790;28;9022;-71
2020/12/12 14:05:19;;;;;;;;;;;;;;;;;;4990292;28;9267;-71
2020/12/12 14:07:47;;;;;;;;;;;;;;;;;;4997790;28;9139;-71
2020/12/12 14:23:56;;;;;;;;;;;;;;;;;;4926397;29;9023;-71
2020/12/12 14:26:42;;;;;;;;;;;;;;;;;;4922273;29;8571;-72
2020/12/12 14:29:07;;;;;;;;;;;;;;;;;;4923632;29;9215;-70
2020/12/12 14:31:34;;;;;;;;;;;;;;;;;;4924484;29;9400;-72
2020/12/12 14:34:01;;;;;;;;;;;;;;;;;;4922290;29;4311;-71
2020/12/12 14:36:27;;;;;;;;;;;;;;;;;;4921279;29;9210;-69
2020/12/12 14:38:53;;;;;;;;;;;;;;;;;;4917297;29;9146;-72
2020/12/12 14:41:19;;;;;;;;;;;;;;;;;;4921316;29;9429;-71
2020/12/12 14:43:46;;;;;;;;;;;;;;;;;;4919592;29;9034;-71
2020/12/12 14:46:11;;;;;;;;;;;;;;;;;;4914346;29;4334;-72
2020/12/12 14:48:39;;;;;;;;;;;;;;;;;;4917876;29;9199;-72
2020/12/12 14:51:05;;;;;;;;;;;;;;;;;;4916879;29;9082;-72
2020/12/12 14:53:31;;;;;;;;;;;;;;;;;;4914401;29;10748;-71
2020/12/12 14:55:57;;;;;;;;;;;;;;;;;;4920940;29;9233;-72
2020/12/12 14:58:23;;;;;;;;;;;;;;;;;;4942983;28;9068;-71
2020/12/12 15:00:49;;;;;;;;;;;;;;;;;;4990179;28;9546;-72
2020/12/12 15:03:15;;;;;;;;;;;;;;;;;;4992141;28;9176;-71
2020/12/12 15:05:42;;;;;;;;;;;;;;;;;;4992408;28;9294;-70
2020/12/12 15:08:08;;;;;;;;;;;;;;;;;;4995002;28;9072;-71
2020/12/12 15:10:34;;;;;;;;;;;;;;;;;;4994132;28;8677;-71
2020/12/12 15:13:00;;;;;;;;;;;;;;;;;;4999196;28;4272;-71
2020/12/12 15:15:26;;;;;;;;;;;;;;;;;;4998656;28;9062;-72
2020/12/12 15:17:52;;;;;;;;;;;;;;;;;;4998218;28;9212;-71
2020/12/12 15:20:18;;;;;;;;;;;;;;;;;;4991667;28;9116;-70
2020/12/12 15:22:45;;;;;;;;;;;;;;;;;;4998427;28;9170;-72
2020/12/12 15:25:10;;;;;;;;;;;;;;;;;;4992009;28;4074;-71
2020/12/12 15:27:37;;;;;;;;;;;;;;;;;;4993712;28;10639;-71
2020/12/12 15:30:03;;;;;;;;;;;;;;;;;;4992277;28;9093;-71
2020/12/12 15:32:30;;;;;;;;;;;;;;;;;;4999517;28;9201;-71
2020/12/12 15:34:56;;;;;;;;;;;;;;;;;;5001610;28;10570;-70
2020/12/12 15:37:22;;;;;;;;;;;;;;;;;;5009967;28;8647;-71
2020/12/12 15:39:49;;;;;;;;;;;;;;;;;;4998739;28;9183;-71
2020/12/12 15:42:15;;;;;;;;;;;;;;;;;;4996293;28;10778;-72
2020/12/12 15:44:41;;;;;;;;;;;;;;;;;;4993310;28;8932;-70
2020/12/12 15:47:07;;;;;;;;;;;;;;;;;;4998328;28;10561;-71
2020/12/12 15:49:33;;;;;;;;;;;;;;;;;;4996859;28;9061;-73
2020/12/12 15:51:59;;;;;;;;;;;;;;;;;;5002631;28;3931;-71
2020/12/12 15:54:25;;;;;;;;;;;;;;;;;;5000485;28;9142;-71
2020/12/12 15:56:52;;;;;;;;;;;;;;;;;;4999468;28;9140;-71
2020/12/12 15:59:18;;;;;;;;;;;;;;;;;;4992566;28;9119;-72
2020/12/12 16:01:44;;;;;;;;;;;;;;;;;;5001483;28;8986;-71
2020/12/12 16:04:11;;;;;;;;;;;;;;;;;;5000320;28;4189;-71
2020/12/12 16:06:37;;;;;;;;;;;;;;;;;;4998416;28;9191;-70
2020/12/12 16:09:04;;;;;;;;;;;;;;;;;;4994221;28;9117;-71
2020/12/12 16:11:30;;;;;;;;;;;;;;;;;;5000615;28;9193;-71
2020/12/12 16:13:58;;;;;;;;;;;;;;;;;;4999836;28;9282;-70
2020/12/12 16:16:23;;;;;;;;;;;;;;;;;;5006052;28;9335;-70
2020/12/12 16:18:49;;;;;;;;;;;;;;;;;;4998576;28;9714;-70
2020/12/12 16:21:15;;;;;;;;;;;;;;;;;;4996916;28;9003;-70
2020/12/12 16:23:41;;;;;;;;;;;;;;;;;;5010796;28;9568;-70
2020/12/12 16:26:08;;;;;;;;;;;;;;;;;;5002428;28;10566;-71
2020/12/12 16:28:34;;;;;;;;;;;;;;;;;;5003509;28;8655;-71
2020/12/12 16:31:01;;;;;;;;;;;;;;;;;;5009293;28;3731;-71
2020/12/12 16:33:27;;;;;;;;;;;;;;;;;;5003500;28;10422;-70
2020/12/12 16:35:53;;;;;;;;;;;;;;;;;;5006179;28;10838;-70
2020/12/12 16:38:18;;;;;;;;;;;;;;;;;;4999076;28;10554;-69
2020/12/12 16:40:44;;;;;;;;;;;;;;;;;;4995504;28;9193;-69
2020/12/12 16:43:11;;;;;;;;;;;;;;;;;;5001192;28;4436;-69
2020/12/12 16:45:36;;;;;;;;;;;;;;;;;;4996598;28;10817;-70
2020/12/12 16:48:04;;;;;;;;;;;;;;;;;;4996538;28;9287;-69
2020/12/12 16:50:29;;;;;;;;;;;;;;;;;;4994356;28;9150;-69
2020/12/12 16:52:55;;;;;;;;;;;;;;;;;;5000499;28;9050;-71
2020/12/12 16:55:22;;;;;;;;;;;;;;;;;;5001900;28;7478;-70
2020/12/12 16:57:49;;;;;;;;;;;;;;;;;;4992450;28;8064;-71
2020/12/12 17:00:17;;;;;;;;;;;;;;;;;;5001230;28;8805;-71
2020/12/12 17:02:43;;;;;;;;;;;;;;;;;;5000553;28;9135;-71
2020/12/12 17:05:10;;;;;;;;;;;;;;;;;;4991788;28;8896;-70
2020/12/12 17:07:40;;;;;;;;;;;;;;;;;;4991248;28;10636;-71
2020/12/12 17:10:06;;;;;;;;;;;;;;;;;;4998085;28;3967;-71
2020/12/12 17:12:32;;;;;;;;;;;;;;;;;;4994438;28;9318;-71
2020/12/12 17:14:58;;;;;;;;;;;;;;;;;;4995026;28;9244;-71
2020/12/12 17:17:24;;;;;;;;;;;;;;;;;;4993547;28;9216;-71
2020/12/12 17:19:50;;;;;;;;;;;;;;;;;;4996439;28;9186;-71